Georgetown, TX (78626)

11:25 AM CST on January 31, 2015 (GMT -0600)
Golden Oaks | Change Station
CLOSE
Current Station
Personal Weather Station
Location: Georgetown, TX
Elevation: 748 ft
Nearby Weather Stations

Elev 748 ft 30.67 °N, 97.68 °W | Updated 4 seconds ago

Overcast
Overcast
48.6 °F
Feels Like 49 °F
N
0.0
Wind Variable Wind from SSW
Gusts 4.0 mph

Today
High -- | Low -- °F
--% Chance of Precip.
Yesterday
High -- | Low -- °F
Precip. -- in
7:22 AM 6:05 PM
Waxing Gibbous, 90% visible
Pressure 30.13 in
Visibility 5.5 miles
Clouds Overcast 1300 ft
Windchill 49 °F
Dew Point 44 °F
Humidity 84%
Rainfall 0.00 in
Snow Depth Not available.
UV 1 out of 12
Pollen 6.40 out of 12
Air Quality Not available.
Flu Activity Not available.
SPECI KGTU 311721Z 09003KT 11/2SM OVC013 09/06 A3013

More Conditions Fewer Conditions

Pressure 30.13 in
Visibility 5.5 miles
Clouds Overcast 1300 ft
Windchill 49 °F
Dew Point 44 °F
Humidity 84%
Rainfall 0.00 in
Snow Depth Not available.
UV 1 out of 12
Pollen 6.40 out of 12
Air Quality Not available.
Flu Activity Not available.
SPECI KGTU 311721Z 09003KT 11/2SM OVC013 09/06 A3013

More Conditions Fewer Conditions

Nowcast | as of 9:51 am CST on January 31, 2015

Light rain showers will move north and east across the Texas Hill country and Interstate 35 corridor. Rain rates of a few hundredths of an inch per hour are possible. Some patch fog will also be possible.

×

10-Day Weather Forecast

Almanac

Astronomy

Jan. 31, 2015 Rise Set
Actual Time
Civil Twilight
Nautical Twilight
Astronomical Twilight
Moon
Length of Visible Light
Length of Day
Tomorrow will be .
, % of the Moon is Illuminated

Today's Extremes

State Highs State Lows

Community

WunderPhotos

Upload Photos

1,792,122 photos uploaded!

WunderBlogs® & News

Nearby

Air Quality

  Air Quality AQ Index Pollutant
Not available.

Snow Depth

Station Depth Elevation

Earthquake Activity

City Distance Mag. Time & Date
Minimum magnitude displayed is 2.5.

Coastal Water Temperatures

Place Temperature

Nearby Weather Stations